createdAt,value
2019-01-19T00:02:53.538Z,2.75
2019-01-19T00:06:30.078Z,2.89
2019-01-19T00:09:25.333Z,2.89
2019-01-19T00:13:03.653Z,2.71
2019-01-19T00:16:10.321Z,2.78
2019-01-19T00:19:51.628Z,2.78
2019-01-19T00:23:02.371Z,2.87
2019-01-19T00:26:29.975Z,2.85
2019-01-19T00:29:22.772Z,2.85
2019-01-19T00:32:34.785Z,2.74
2019-01-19T00:36:10.689Z,2.81
2019-01-19T00:39:45.752Z,2.58
2019-01-19T00:42:48.320Z,2.60
2019-01-19T00:46:40.463Z,2.60
2019-01-19T00:49:41.469Z,2.63
2019-01-19T00:53:11.321Z,2.48
2019-01-19T00:56:31.410Z,2.55
2019-01-19T00:59:18.511Z,2.43
2019-01-19T01:02:52.631Z,2.38
2019-01-19T01:06:03.525Z,2.51
2019-01-19T01:09:16.746Z,2.55
2019-01-19T01:12:07.326Z,2.55
2019-01-19T01:15:27.494Z,2.43
2019-01-19T01:18:26.421Z,2.52
2019-01-19T01:21:59.702Z,2.60
2019-01-19T01:25:34.056Z,2.50
2019-01-19T01:28:41.445Z,2.58
2019-01-19T01:32:05.617Z,2.51
2019-01-19T01:35:33.104Z,2.52
2019-01-19T01:38:52.275Z,2.39
2019-01-19T01:42:25.776Z,2.26
2019-01-19T01:45:45.320Z,2.23
2019-01-19T01:49:17.506Z,2.22
2019-01-19T01:52:42.471Z,2.33
2019-01-19T01:55:55.133Z,2.13
2019-01-19T01:59:18.241Z,2.18
2019-01-19T02:02:31.768Z,2.39
2019-01-19T02:05:59.129Z,2.35
2019-01-19T02:09:14.475Z,2.21
2019-01-19T02:12:27.724Z,2.05
2019-01-19T02:15:41.745Z,2.28
2019-01-19T02:18:56.320Z,1.97
2019-01-19T02:22:13.394Z,2.01
2019-01-19T02:25:46.038Z,2.12
2019-01-19T02:29:01.570Z,2.11
2019-01-19T02:32:12.183Z,2.10
2019-01-19T02:35:34.934Z,1.92
2019-01-19T02:38:46.235Z,2.03
2019-01-19T02:42:00.486Z,2.04
2019-01-19T02:45:22.142Z,1.88
2019-01-19T02:48:43.875Z,1.82
2019-01-19T02:51:52.355Z,1.93
2019-01-19T02:55:08.661Z,1.91
2019-01-19T02:58:46.575Z,1.91
2019-01-19T03:02:12.051Z,1.98
2019-01-19T03:05:34.246Z,1.85
2019-01-19T03:08:47.185Z,1.86
2019-01-19T03:12:15.593Z,1.90
2019-01-19T03:15:33.775Z,1.86
2019-01-19T03:18:46.805Z,1.80
2019-01-19T03:22:19.485Z,1.60
2019-01-19T03:25:41.236Z,1.61
2019-01-19T03:28:51.550Z,1.67
2019-01-19T03:32:15.839Z,1.66
2019-01-19T03:35:41.781Z,1.62
2019-01-19T03:38:48.763Z,1.81
2019-01-19T03:41:55.318Z,1.71
2019-01-19T03:45:25.875Z,1.74
2019-01-19T03:48:50.752Z,1.63
2019-01-19T03:51:52.325Z,1.59
2019-01-19T03:54:57.182Z,1.61
2019-01-19T03:58:07.799Z,1.64
2019-01-19T04:01:18.597Z,1.60
2019-01-19T04:04:33.517Z,1.65
2019-01-19T04:07:53.553Z,1.80
2019-01-19T04:10:47.873Z,1.57
2019-01-19T04:14:13.347Z,1.54
2019-01-19T04:17:24.843Z,1.42
2019-01-19T04:20:28.212Z,1.47
2019-01-19T04:23:04.434Z,1.38
2019-01-19T04:25:54.852Z,1.32
2019-01-19T04:28:27.362Z,1.47
2019-01-19T04:30:58.732Z,1.42
2019-01-19T04:33:30.274Z,1.63
2019-01-19T04:36:01.666Z,1.37
2019-01-19T04:38:34.690Z,1.34
2019-01-19T04:41:05.993Z,1.41
2019-01-19T04:43:37.335Z,1.47
2019-01-19T04:46:08.718Z,1.50
2019-01-19T04:48:40.598Z,1.48
2019-01-19T04:51:11.687Z,1.33
2019-01-19T04:53:43.506Z,1.28
2019-01-19T04:56:14.884Z,1.29
2019-01-19T04:58:46.283Z,1.34
2019-01-19T05:01:17.431Z,1.54
2019-01-19T05:03:48.489Z,1.52
2019-01-19T05:06:20.481Z,1.45
2019-01-19T05:08:51.827Z,1.39
2019-01-19T05:11:23.779Z,1.33
2019-01-19T05:13:54.748Z,1.34
2019-01-19T05:16:26.030Z,1.30
2019-01-19T05:18:58.324Z,1.39
2019-01-19T05:21:30.169Z,1.20
2019-01-19T05:24:01.512Z,1.39
2019-01-19T05:26:33.009Z,1.08
2019-01-19T05:29:04.235Z,1.15
2019-01-19T05:31:35.226Z,1.00
2019-01-19T05:34:06.263Z,0.95
2019-01-19T05:36:38.500Z,0.97
2019-01-19T05:39:10.541Z,1.00
2019-01-19T05:41:41.510Z,1.14
2019-01-19T05:44:16.033Z,1.17
2019-01-19T05:46:47.363Z,1.22
2019-01-19T05:49:18.683Z,1.28
2019-01-19T05:51:49.744Z,1.21
2019-01-19T05:54:20.732Z,1.21
2019-01-19T05:56:51.972Z,1.17
2019-01-19T05:59:23.767Z,0.94
2019-01-19T06:01:54.826Z,1.07
2019-01-19T06:04:25.810Z,0.91
2019-01-19T06:06:57.106Z,1.00
2019-01-19T06:09:28.082Z,1.04
2019-01-19T06:11:59.712Z,1.05
2019-01-19T06:14:31.347Z,1.13
2019-01-19T06:17:02.683Z,1.11
2019-01-19T06:19:34.373Z,1.06
2019-01-19T06:22:06.198Z,1.09
2019-01-19T06:24:37.738Z,1.09
2019-01-19T06:27:09.111Z,1.09
2019-01-19T06:29:40.167Z,0.88
2019-01-19T06:32:11.689Z,0.90
2019-01-19T06:34:44.080Z,0.85
2019-01-19T06:37:15.068Z,0.84
2019-01-19T06:39:46.117Z,0.89
2019-01-19T06:42:17.351Z,0.77
2019-01-19T06:44:48.348Z,0.86
2019-01-19T06:47:19.795Z,0.91
2019-01-19T06:49:51.398Z,0.92
2019-01-19T06:52:22.646Z,0.82
2019-01-19T06:54:54.272Z,0.89
2019-01-19T06:57:26.964Z,0.84
2019-01-19T06:59:58.180Z,0.93
2019-01-19T07:02:29.763Z,0.82
2019-01-19T07:05:00.791Z,0.92
2019-01-19T07:07:32.119Z,0.94
2019-01-19T07:10:04.416Z,1.00
2019-01-19T07:12:35.485Z,0.92
2019-01-19T07:15:09.962Z,0.96
2019-01-19T07:17:41.509Z,0.88
2019-01-19T07:20:19.176Z,0.89
2019-01-19T07:22:50.245Z,0.89
2019-01-19T07:25:21.397Z,0.89
2019-01-19T07:27:52.762Z,1.00
2019-01-19T07:30:25.113Z,1.01
2019-01-19T07:32:56.484Z,0.91
2019-01-19T07:35:27.945Z,0.97
2019-01-19T07:37:59.009Z,0.90
2019-01-19T07:40:30.384Z,0.72
2019-01-19T07:43:07.190Z,0.87
2019-01-19T07:45:38.532Z,0.75
2019-01-19T07:48:10.599Z,0.76
2019-01-19T07:50:42.712Z,0.75
2019-01-19T07:53:14.831Z,0.73
2019-01-19T07:55:46.485Z,0.78
2019-01-19T07:58:17.936Z,0.83
2019-01-19T08:00:49.009Z,0.81
2019-01-19T08:03:20.044Z,0.71
2019-01-19T08:05:51.054Z,1.03
2019-01-19T08:08:23.063Z,0.95
2019-01-19T08:10:54.666Z,1.15
2019-01-19T08:13:26.060Z,1.41
2019-01-19T08:15:57.597Z,1.57
2019-01-19T08:18:29.123Z,1.57
2019-01-19T08:21:00.427Z,1.70
2019-01-19T08:23:32.214Z,1.83
2019-01-19T08:26:09.386Z,1.96
2019-01-19T08:28:41.083Z,2.02
2019-01-19T08:31:12.246Z,2.07
2019-01-19T08:33:43.918Z,2.13
2019-01-19T08:36:15.089Z,2.17
2019-01-19T08:38:46.175Z,2.24
2019-01-19T08:41:17.409Z,2.29
2019-01-19T08:43:56.749Z,2.39
2019-01-19T08:46:28.239Z,2.68
2019-01-19T08:48:59.592Z,2.68
2019-01-19T08:51:30.713Z,2.65
2019-01-19T08:54:02.070Z,2.59
2019-01-19T08:56:34.010Z,2.61
2019-01-19T08:59:05.461Z,2.63
2019-01-19T09:01:36.657Z,2.70
2019-01-19T09:04:07.880Z,2.78
2019-01-19T09:06:39.192Z,2.86
2019-01-19T09:09:10.591Z,2.96
2019-01-19T09:11:42.194Z,3.02
2019-01-19T09:14:13.678Z,3.12
2019-01-19T09:16:45.187Z,3.37
2019-01-19T09:19:16.447Z,3.48
2019-01-19T09:21:47.711Z,3.64
2019-01-19T09:24:24.524Z,3.64
2019-01-19T09:26:55.504Z,3.83
2019-01-19T09:29:26.918Z,3.66
2019-01-19T09:31:58.535Z,3.84
2019-01-19T09:34:30.064Z,3.95
2019-01-19T09:37:01.068Z,4.01
2019-01-19T09:39:32.192Z,4.05
2019-01-19T09:42:03.670Z,4.11
2019-01-19T09:45:14.563Z,4.17
2019-01-19T09:47:46.350Z,4.18
2019-01-19T09:50:18.029Z,4.17
2019-01-19T09:52:50.745Z,4.23
2019-01-19T09:55:21.803Z,4.08
2019-01-19T09:57:53.828Z,4.21
2019-01-19T10:00:25.439Z,4.05
2019-01-19T10:02:56.923Z,3.76
2019-01-19T10:05:28.549Z,3.85
2019-01-19T10:07:59.906Z,3.97
2019-01-19T10:10:31.193Z,3.78
2019-01-19T10:13:02.499Z,3.91
2019-01-19T10:15:34.811Z,3.98
2019-01-19T10:18:06.408Z,4.25
2019-01-19T10:20:37.586Z,4.31
2019-01-19T10:23:09.009Z,4.37
2019-01-19T10:25:40.576Z,4.34
2019-01-19T10:28:12.019Z,4.24
2019-01-19T10:30:44.537Z,4.16
2019-01-19T10:33:15.865Z,4.05
2019-01-19T10:35:47.499Z,4.10
2019-01-19T10:38:18.807Z,4.08
2019-01-19T10:40:50.153Z,4.16
2019-01-19T10:43:21.348Z,4.10
2019-01-19T10:45:52.710Z,4.02
2019-01-19T10:48:24.082Z,4.07
2019-01-19T10:50:55.475Z,4.07
2019-01-19T10:53:26.763Z,3.96
2019-01-19T10:55:58.523Z,3.92
2019-01-19T10:58:29.821Z,3.95
2019-01-19T11:01:01.106Z,3.85
2019-01-19T11:03:32.838Z,3.86
2019-01-19T11:06:04.445Z,3.63
2019-01-19T11:08:35.907Z,3.69
2019-01-19T11:11:07.656Z,3.66
2019-01-19T11:13:39.697Z,3.74
2019-01-19T11:16:10.816Z,3.75
2019-01-19T11:18:42.679Z,3.80
2019-01-19T11:21:14.318Z,3.75
2019-01-19T11:23:45.571Z,3.81
2019-01-19T11:26:16.890Z,3.83
2019-01-19T11:28:49.064Z,3.72
2019-01-19T11:31:26.321Z,3.58
2019-01-19T11:34:05.453Z,3.56
2019-01-19T11:36:37.428Z,3.53
2019-01-19T11:39:09.550Z,3.50
2019-01-19T11:41:42.146Z,3.51
2019-01-19T11:44:14.469Z,3.55
2019-01-19T11:46:45.570Z,3.34
2019-01-19T11:49:16.872Z,3.52
2019-01-19T11:51:49.651Z,3.49
2019-01-19T11:54:20.690Z,3.46
2019-01-19T11:56:51.671Z,3.36
2019-01-19T11:59:22.666Z,3.49
2019-01-19T12:01:54.028Z,3.51
2019-01-19T12:04:25.021Z,3.46
2019-01-19T12:06:56.540Z,3.45
2019-01-19T12:09:28.295Z,3.54
2019-01-19T12:11:59.722Z,3.42
2019-01-19T12:14:30.694Z,3.44
2019-01-19T12:17:01.760Z,3.34
2019-01-19T12:19:32.731Z,3.28
2019-01-19T12:22:04.399Z,3.35
2019-01-19T12:24:35.369Z,3.27
2019-01-19T12:27:06.701Z,3.33
2019-01-19T12:29:38.141Z,3.33
2019-01-19T12:32:09.587Z,3.25
2019-01-19T12:34:41.040Z,3.31
2019-01-19T12:37:12.054Z,3.31
2019-01-19T12:39:44.268Z,3.45
2019-01-19T12:42:15.446Z,3.42
2019-01-19T12:44:46.846Z,3.37
2019-01-19T12:47:18.487Z,3.27
2019-01-19T12:49:49.747Z,3.24
2019-01-19T12:52:21.504Z,3.15
2019-01-19T12:54:53.068Z,3.12
2019-01-19T12:57:24.148Z,2.97
2019-01-19T12:59:55.662Z,3.19
2019-01-19T13:02:26.855Z,3.18
2019-01-19T13:04:58.569Z,3.16
2019-01-19T13:07:29.767Z,3.17
2019-01-19T13:10:15.844Z,3.12
2019-01-19T13:13:16.534Z,3.23
2019-01-19T13:16:47.271Z,3.18
2019-01-19T13:19:52.167Z,3.09
2019-01-19T13:23:26.320Z,3.10
2019-01-19T13:26:55.834Z,3.04
2019-01-19T13:29:57.282Z,3.12
2019-01-19T13:32:59.536Z,3.03
2019-01-19T13:36:12.149Z,3.09
2019-01-19T13:39:22.898Z,3.13
2019-01-19T13:43:14.186Z,3.12
2019-01-19T13:46:35.687Z,3.16
2019-01-19T13:50:28.412Z,3.07
2019-01-19T13:53:50.497Z,3.08
2019-01-19T13:57:29.998Z,3.02
2019-01-19T14:00:40.020Z,2.95
2019-01-19T14:03:56.222Z,2.96
2019-01-19T14:07:45.336Z,2.98
2019-01-19T14:10:57.931Z,3.09
2019-01-19T14:14:43.793Z,3.04
2019-01-19T14:18:15.455Z,3.15
2019-01-19T14:21:27.928Z,2.93
2019-01-19T14:24:44.259Z,3.16
2019-01-19T14:28:13.565Z,2.91
2019-01-19T14:31:35.480Z,3.06
2019-01-19T14:34:54.514Z,3.16
2019-01-19T14:38:22.592Z,3.21
2019-01-19T14:42:33.530Z,3.23
2019-01-19T14:45:40.481Z,3.26
2019-01-19T14:49:30.074Z,3.22
2019-01-19T14:52:47.517Z,3.26
2019-01-19T14:56:29.557Z,3.07
2019-01-19T15:00:01.342Z,3.13
2019-01-19T15:03:54.068Z,3.20
2019-01-19T15:07:24.797Z,3.26
2019-01-19T15:10:31.845Z,3.23
2019-01-19T15:13:51.355Z,3.21
2019-01-19T15:17:15.362Z,3.23
2019-01-19T15:20:58.368Z,3.22
2019-01-19T15:24:21.431Z,3.24
2019-01-19T15:27:46.244Z,3.24
2019-01-19T15:30:58.473Z,3.24
2019-01-19T15:34:17.320Z,3.35
2019-01-19T15:37:57.695Z,3.46
2019-01-19T15:41:10.798Z,3.37
2019-01-19T15:44:18.496Z,3.30
2019-01-19T15:47:33.359Z,3.38
2019-01-19T15:51:08.068Z,3.31
2019-01-19T15:54:26.262Z,3.29
2019-01-19T15:58:01.256Z,3.09
2019-01-19T16:01:03.906Z,3.15
2019-01-19T16:04:37.304Z,3.13
2019-01-19T16:08:20.123Z,3.17
2019-01-19T16:12:11.727Z,3.11
2019-01-19T16:15:11.313Z,3.02
2019-01-19T16:18:01.685Z,2.93
2019-01-19T16:21:12.702Z,2.98
2019-01-19T16:24:22.488Z,3.04
2019-01-19T16:27:27.745Z,2.89
2019-01-19T16:30:39.093Z,2.87
2019-01-19T16:33:35.707Z,2.95
2019-01-19T16:36:56.999Z,2.89
2019-01-19T16:40:15.108Z,2.83
2019-01-19T16:43:20.256Z,2.82
2019-01-19T16:46:27.551Z,2.71
2019-01-19T16:49:29.598Z,2.76
2019-01-19T16:52:43.878Z,2.80
2019-01-19T16:55:57.607Z,2.82
2019-01-19T16:59:15.362Z,2.68
2019-01-19T17:02:36.549Z,2.61
2019-01-19T17:06:15.751Z,2.65
2019-01-19T17:09:10.373Z,2.60
2019-01-19T17:12:13.466Z,2.24
2019-01-19T17:15:26.404Z,2.25
2019-01-19T17:18:21.240Z,2.36
2019-01-19T17:21:41.579Z,2.28
2019-01-19T17:24:51.469Z,2.32
2019-01-19T17:27:59.493Z,2.40
2019-01-19T17:31:07.732Z,2.33
2019-01-19T17:34:10.970Z,2.35
2019-01-19T17:37:05.562Z,2.16
2019-01-19T17:40:37.258Z,2.18
2019-01-19T17:43:48.538Z,2.09
2019-01-19T17:47:38.141Z,2.01
2019-01-19T17:50:47.862Z,1.97
2019-01-19T17:54:19.758Z,1.61
2019-01-19T17:57:35.559Z,1.75
2019-01-19T18:00:55.519Z,1.72
2019-01-19T18:03:54.506Z,1.56
2019-01-19T18:07:16.751Z,1.31
2019-01-19T18:10:38.321Z,1.46
2019-01-19T18:13:54.472Z,1.49
2019-01-19T18:17:24.368Z,1.55
2019-01-19T18:20:24.935Z,1.53
2019-01-19T18:23:32.524Z,1.54
2019-01-19T18:26:49.790Z,1.54
2019-01-19T18:30:19.651Z,1.48
2019-01-19T18:33:47.052Z,1.42
2019-01-19T18:37:14.815Z,1.41
2019-01-19T18:41:14.397Z,1.35
2019-01-19T18:44:32.783Z,1.37
2019-01-19T18:47:38.118Z,1.36
2019-01-19T18:51:26.801Z,1.38
2019-01-19T18:55:12.625Z,1.31
2019-01-19T18:58:22.608Z,1.31
2019-01-19T19:01:21.296Z,1.17
2019-01-19T19:04:52.415Z,1.01
2019-01-19T19:08:21.239Z,1.10
2019-01-19T19:11:26.108Z,1.01
2019-01-19T19:14:25.420Z,1.00
2019-01-19T19:17:32.155Z,0.95
2019-01-19T19:21:14.884Z,0.96
2019-01-19T19:24:45.934Z,0.98
2019-01-19T19:28:24.354Z,1.01
2019-01-19T19:31:33.259Z,0.97
2019-01-19T19:34:58.903Z,0.89
2019-01-19T19:38:18.601Z,0.92
2019-01-19T19:41:29.872Z,0.83
2019-01-19T19:45:00.428Z,0.87
2019-01-19T19:48:47.049Z,0.68
2019-01-19T19:52:04.453Z,0.82
2019-01-19T19:54:36.779Z,0.77
2019-01-19T19:57:08.411Z,0.74
2019-01-19T19:59:39.388Z,0.81
2019-01-19T20:02:10.396Z,0.76
2019-01-19T20:04:42.794Z,0.73
2019-01-19T20:07:15.016Z,0.78
2019-01-19T20:09:46.980Z,0.66
2019-01-19T20:12:19.243Z,0.69
2019-01-19T20:14:50.731Z,0.71
2019-01-19T20:17:22.232Z,0.70
2019-01-19T20:19:53.584Z,0.67
2019-01-19T20:22:24.933Z,0.69
2019-01-19T20:24:56.178Z,0.69
2019-01-19T20:27:27.558Z,0.74
2019-01-19T20:29:58.534Z,0.78
2019-01-19T20:32:31.391Z,0.67
2019-01-19T20:35:02.918Z,0.55
2019-01-19T20:37:34.834Z,0.72
2019-01-19T20:40:07.834Z,0.68
2019-01-19T20:42:39.258Z,0.78
2019-01-19T20:45:12.171Z,0.86
2019-01-19T20:47:44.025Z,0.67
2019-01-19T20:50:16.204Z,0.77
2019-01-19T20:52:47.777Z,0.76
2019-01-19T20:55:19.118Z,0.62
2019-01-19T20:57:51.284Z,0.72
2019-01-19T21:00:22.553Z,0.66
2019-01-19T21:02:53.565Z,0.71
2019-01-19T21:05:24.938Z,0.76
2019-01-19T21:07:56.935Z,0.81
2019-01-19T21:10:31.982Z,0.93
2019-01-19T21:13:01.074Z,0.87
2019-01-19T21:15:32.243Z,0.81
2019-01-19T21:18:03.638Z,0.85
2019-01-19T21:20:35.268Z,0.76
2019-01-19T21:23:06.490Z,0.66
2019-01-19T21:25:37.888Z,0.67
2019-01-19T21:28:09.426Z,0.52
2019-01-19T21:30:40.727Z,0.68
2019-01-19T21:33:11.772Z,0.61
2019-01-19T21:35:42.771Z,0.56
2019-01-19T21:38:14.162Z,0.61
2019-01-19T21:40:46.259Z,0.60
2019-01-19T21:43:17.344Z,0.56
2019-01-19T21:45:48.883Z,0.54
2019-01-19T21:48:20.017Z,0.67
2019-01-19T21:50:50.998Z,0.56
2019-01-19T21:53:22.381Z,0.66
2019-01-19T21:55:53.938Z,0.64
2019-01-19T21:58:25.041Z,0.66
2019-01-19T22:00:56.144Z,0.64
2019-01-19T22:03:27.189Z,0.62
2019-01-19T22:05:58.238Z,0.55
2019-01-19T22:08:29.490Z,0.52
2019-01-19T22:11:00.949Z,0.46
2019-01-19T22:13:32.191Z,0.64
2019-01-19T22:16:03.434Z,0.60
2019-01-19T22:18:35.474Z,0.64
2019-01-19T22:21:06.541Z,0.69
2019-01-19T22:23:37.590Z,0.67
2019-01-19T22:26:10.760Z,0.65
2019-01-19T22:28:41.827Z,0.56
2019-01-19T22:31:13.639Z,0.58
2019-01-19T22:33:46.055Z,0.54
2019-01-19T22:36:17.021Z,0.57
2019-01-19T22:38:48.528Z,0.55
2019-01-19T22:41:19.565Z,0.48
2019-01-19T22:43:50.703Z,0.58
2019-01-19T22:46:21.962Z,0.58
2019-01-19T22:48:53.591Z,0.59
2019-01-19T22:51:24.938Z,0.54
2019-01-19T22:53:56.586Z,0.46
2019-01-19T22:56:27.757Z,0.44
2019-01-19T22:58:58.742Z,0.47
2019-01-19T23:01:53.157Z,0.54
2019-01-19T23:04:24.226Z,0.60
2019-01-19T23:06:55.274Z,0.52
2019-01-19T23:09:26.910Z,0.55
2019-01-19T23:11:58.866Z,0.58
2019-01-19T23:14:30.315Z,0.65
2019-01-19T23:17:01.609Z,0.56
2019-01-19T23:19:33.051Z,0.32
2019-01-19T23:22:04.771Z,0.50
2019-01-19T23:24:35.843Z,0.52
2019-01-19T23:27:07.803Z,0.46
2019-01-19T23:29:39.372Z,0.50
2019-01-19T23:32:10.691Z,0.41
2019-01-19T23:34:42.128Z,0.41
2019-01-19T23:37:13.486Z,0.42
2019-01-19T23:39:44.557Z,0.46
2019-01-19T23:42:16.721Z,0.43
2019-01-19T23:44:47.717Z,0.42
2019-01-19T23:47:18.940Z,0.45
2019-01-19T23:49:50.739Z,0.61
2019-01-19T23:52:21.976Z,0.63
2019-01-19T23:54:53.255Z,0.55
2019-01-19T23:57:24.885Z,0.49
2019-01-19T23:59:56.947Z,0.57
